createdAt,value
2018-04-24T00:01:31.863Z,13.00
2018-04-24T00:03:59.365Z,13.00
2018-04-24T00:06:26.867Z,13.00
2018-04-24T00:08:54.373Z,12.90
2018-04-24T00:11:22.632Z,12.80
2018-04-24T00:13:50.920Z,12.80
2018-04-24T00:16:19.226Z,12.90
2018-04-24T00:18:46.717Z,12.80
2018-04-24T00:21:14.198Z,12.80
2018-04-24T00:23:42.504Z,12.70
2018-04-24T00:26:10.239Z,12.70
2018-04-24T00:28:38.590Z,12.70
2018-04-24T00:31:06.116Z,12.70
2018-04-24T00:33:33.627Z,12.60
2018-04-24T00:36:01.886Z,12.70
2018-04-24T00:38:29.438Z,12.70
2018-04-24T00:40:57.017Z,12.70
2018-04-24T00:43:24.518Z,12.80
2018-04-24T00:45:52.071Z,12.80
2018-04-24T00:48:19.581Z,12.80
2018-04-24T00:50:47.069Z,12.80
2018-04-24T00:53:27.150Z,12.80
2018-04-24T00:55:54.681Z,12.80
2018-04-24T00:58:22.165Z,12.80
2018-04-24T01:00:49.686Z,12.90
2018-04-24T01:03:17.971Z,12.90
2018-04-24T01:05:45.462Z,12.90
2018-04-24T01:08:12.949Z,12.90
2018-04-24T01:10:40.467Z,12.90
2018-04-24T01:13:08.014Z,13.00
2018-04-24T01:15:35.502Z,13.10
2018-04-24T01:18:03.357Z,13.10
2018-04-24T01:20:30.878Z,13.10
2018-04-24T01:22:59.271Z,13.10
2018-04-24T01:25:26.773Z,13.10
2018-04-24T01:27:54.358Z,13.10
2018-04-24T01:30:21.859Z,13.10
2018-04-24T01:32:49.370Z,13.20
2018-04-24T01:35:16.926Z,13.20
2018-04-24T01:37:44.420Z,13.30
2018-04-24T01:40:12.012Z,13.30
2018-04-24T01:42:39.546Z,13.20
2018-04-24T01:45:07.974Z,13.30
2018-04-24T01:47:35.462Z,13.30
2018-04-24T01:50:03.782Z,13.30
2018-04-24T01:52:31.298Z,13.20
2018-04-24T01:54:59.558Z,13.30
2018-04-24T01:57:27.833Z,13.30
2018-04-24T01:59:56.080Z,13.30
2018-04-24T02:02:23.602Z,13.20
2018-04-24T02:04:51.095Z,13.30
2018-04-24T02:07:18.624Z,13.30
2018-04-24T02:09:46.118Z,13.30
2018-04-24T02:12:13.651Z,13.30
2018-04-24T02:14:41.148Z,13.30
2018-04-24T02:17:08.644Z,13.30
2018-04-24T02:19:36.229Z,13.30
2018-04-24T02:22:03.753Z,13.30
2018-04-24T02:24:31.265Z,13.30
2018-04-24T02:26:58.750Z,13.30
2018-04-24T02:29:27.030Z,13.30
2018-04-24T02:31:54.536Z,13.20
2018-04-24T02:34:22.079Z,13.30
2018-04-24T02:36:49.663Z,13.30
2018-04-24T02:39:17.090Z,13.30
2018-04-24T02:41:44.621Z,13.30
2018-04-24T02:44:12.876Z,13.30
2018-04-24T02:46:40.398Z,13.20
2018-04-24T02:49:07.995Z,13.10
2018-04-24T02:51:36.268Z,13.00
2018-04-24T02:54:03.774Z,13.00
2018-04-24T02:56:31.302Z,13.00
2018-04-24T02:58:59.562Z,13.00
2018-04-24T03:01:27.828Z,12.90
2018-04-24T03:03:55.366Z,12.90
2018-04-24T03:06:22.860Z,12.90
2018-04-24T03:08:51.151Z,13.00
2018-04-24T03:11:18.662Z,13.00
2018-04-24T03:13:46.161Z,13.00
2018-04-24T03:16:14.429Z,12.90
2018-04-24T03:18:42.693Z,12.80
2018-04-24T03:21:10.945Z,12.90
2018-04-24T03:23:38.477Z,12.90
2018-04-24T03:26:06.005Z,12.80
2018-04-24T03:28:33.601Z,12.80
2018-04-24T03:31:01.068Z,12.80
2018-04-24T03:33:28.838Z,12.70
2018-04-24T03:35:56.361Z,12.70
2018-04-24T03:38:23.856Z,12.70
2018-04-24T03:40:51.384Z,12.70
2018-04-24T03:43:18.922Z,12.70
2018-04-24T03:45:46.456Z,12.60
2018-04-24T03:48:14.712Z,12.60
2018-04-24T03:50:42.188Z,12.60
2018-04-24T03:53:10.457Z,12.60
2018-04-24T03:55:37.962Z,12.60
2018-04-24T03:58:05.509Z,12.60
2018-04-24T04:00:33.885Z,12.50
2018-04-24T04:03:01.386Z,12.40
2018-04-24T04:05:28.901Z,12.40
2018-04-24T04:07:56.413Z,12.40
2018-04-24T04:10:23.978Z,12.40
2018-04-24T04:12:51.482Z,12.30
2018-04-24T04:15:18.999Z,12.30
2018-04-24T04:17:59.374Z,12.30
2018-04-24T04:20:39.553Z,12.30
2018-04-24T04:23:19.011Z,12.30
2018-04-24T04:25:46.539Z,12.30
2018-04-24T04:28:14.031Z,12.20
2018-04-24T04:30:41.555Z,12.10
2018-04-24T04:33:09.065Z,12.00
2018-04-24T04:35:36.586Z,12.00
2018-04-24T04:38:04.086Z,12.00
2018-04-24T04:40:32.371Z,12.00
2018-04-24T04:42:59.942Z,12.00
2018-04-24T04:45:28.234Z,12.00
2018-04-24T04:47:55.753Z,12.00
2018-04-24T04:50:23.267Z,12.00
2018-04-24T04:52:50.884Z,11.90
2018-04-24T04:55:19.155Z,11.90
2018-04-24T04:57:46.693Z,11.90
2018-04-24T05:00:14.221Z,12.00
2018-04-24T05:02:41.715Z,12.00
2018-04-24T05:05:09.306Z,12.10
2018-04-24T05:07:36.771Z,12.10
2018-04-24T05:10:04.290Z,12.10
2018-04-24T05:12:31.772Z,12.10
2018-04-24T05:15:00.024Z,12.10
2018-04-24T05:17:27.548Z,12.10
2018-04-24T05:19:55.103Z,12.00
2018-04-24T05:22:22.628Z,12.00
2018-04-24T05:24:50.921Z,12.20
2018-04-24T05:27:18.446Z,12.10
2018-04-24T05:29:45.944Z,12.30
2018-04-24T05:32:13.453Z,12.40
2018-04-24T05:34:40.959Z,12.60
2018-04-24T05:37:08.455Z,12.60
2018-04-24T05:39:35.978Z,12.60
2018-04-24T05:42:03.540Z,12.70
2018-04-24T05:44:31.051Z,12.80
2018-04-24T05:46:58.546Z,12.80
2018-04-24T05:49:26.073Z,12.90
2018-04-24T05:51:54.413Z,13.20
2018-04-24T05:54:21.909Z,13.20
2018-04-24T05:56:50.261Z,13.30
2018-04-24T05:59:17.902Z,13.20
2018-04-24T06:01:45.391Z,13.30
2018-04-24T06:04:12.882Z,13.30
2018-04-24T06:06:40.417Z,13.30
2018-04-24T06:09:08.785Z,13.50
2018-04-24T06:11:36.305Z,13.50
2018-04-24T06:14:03.843Z,13.50
2018-04-24T06:16:31.375Z,13.60
2018-04-24T06:18:58.899Z,13.50
2018-04-24T06:21:26.419Z,13.60
2018-04-24T06:23:53.917Z,13.60
2018-04-24T06:26:21.437Z,13.60
2018-04-24T06:28:48.977Z,13.70
2018-04-24T06:31:16.533Z,13.80
2018-04-24T06:33:44.062Z,13.90
2018-04-24T06:36:12.345Z,14.00
2018-04-24T06:38:39.886Z,14.00
2018-04-24T06:41:07.404Z,14.00
2018-04-24T06:43:34.926Z,14.20
2018-04-24T06:46:03.244Z,14.30
2018-04-24T06:48:30.747Z,14.20
2018-04-24T06:50:59.068Z,14.40
2018-04-24T06:53:26.591Z,14.30
2018-04-24T06:55:54.140Z,14.50
2018-04-24T06:58:21.654Z,14.70
2018-04-24T07:00:49.251Z,14.80
2018-04-24T07:03:16.791Z,14.80
2018-04-24T07:05:44.326Z,14.90
2018-04-24T07:08:11.827Z,15.00
2018-04-24T07:10:39.321Z,15.10
2018-04-24T07:13:06.894Z,15.20
2018-04-24T07:15:34.393Z,15.30
2018-04-24T07:18:02.042Z,15.40
2018-04-24T07:20:29.529Z,15.50
2018-04-24T07:22:57.826Z,15.90
2018-04-24T07:25:25.407Z,15.90
2018-04-24T07:27:52.893Z,16.10
2018-04-24T07:30:21.911Z,16.30
2018-04-24T07:32:49.464Z,16.30
2018-04-24T07:35:16.972Z,16.50
2018-04-24T07:37:44.484Z,16.60
2018-04-24T07:40:12.041Z,16.70
2018-04-24T07:42:39.525Z,16.80
2018-04-24T07:45:07.145Z,16.90
2018-04-24T07:47:34.679Z,16.90
2018-04-24T07:50:02.254Z,17.00
2018-04-24T07:52:29.791Z,17.10
2018-04-24T07:54:57.305Z,17.10
2018-04-24T07:57:25.584Z,17.50
2018-04-24T07:59:53.864Z,17.70
2018-04-24T08:02:21.385Z,17.70
2018-04-24T08:04:48.962Z,17.90
2018-04-24T08:07:17.264Z,18.00
2018-04-24T08:09:44.765Z,18.00
2018-04-24T08:12:13.082Z,18.20
2018-04-24T08:14:41.399Z,18.20
2018-04-24T08:17:08.964Z,18.10
2018-04-24T08:19:36.490Z,18.10
2018-04-24T08:22:04.020Z,18.00
2018-04-24T08:24:31.668Z,18.10
2018-04-24T08:26:59.178Z,18.10
2018-04-24T08:29:26.755Z,18.10
2018-04-24T08:31:54.280Z,18.20
2018-04-24T08:34:21.873Z,18.40
2018-04-24T08:36:49.372Z,18.50
2018-04-24T08:39:16.932Z,18.60
2018-04-24T08:41:44.515Z,18.60
2018-04-24T08:44:12.013Z,18.90
2018-04-24T08:46:39.504Z,19.10
2018-04-24T08:49:07.058Z,19.20
2018-04-24T08:51:35.360Z,19.30
2018-04-24T08:54:03.703Z,19.30
2018-04-24T08:56:31.249Z,19.30
2018-04-24T08:58:59.525Z,19.40
2018-04-24T09:01:27.085Z,19.40
2018-04-24T09:03:54.595Z,19.20
2018-04-24T09:06:22.128Z,19.30
2018-04-24T09:08:50.386Z,19.60
2018-04-24T09:11:17.909Z,19.60
2018-04-24T09:13:45.450Z,19.60
2018-04-24T09:16:12.949Z,19.80
2018-04-24T09:18:40.480Z,19.70
2018-04-24T09:21:07.981Z,19.80
2018-04-24T09:23:36.246Z,20.30
2018-04-24T09:26:03.987Z,20.30
2018-04-24T09:28:31.505Z,20.50
2018-04-24T09:30:58.985Z,20.80
2018-04-24T09:33:27.026Z,21.10
2018-04-24T09:35:54.614Z,21.00
2018-04-24T09:38:22.878Z,20.90
2018-04-24T09:40:50.396Z,20.70
2018-04-24T09:43:17.890Z,20.80
2018-04-24T09:45:45.450Z,20.70
2018-04-24T09:48:12.959Z,20.70
2018-04-24T09:50:41.223Z,20.60
2018-04-24T09:53:08.733Z,20.60
2018-04-24T09:55:36.209Z,20.60
2018-04-24T09:58:03.765Z,20.70
2018-04-24T10:00:36.220Z,20.80
2018-04-24T10:03:03.757Z,20.80
2018-04-24T10:05:31.247Z,20.80
2018-04-24T10:07:58.754Z,20.90
2018-04-24T10:10:26.358Z,21.00
2018-04-24T10:12:53.886Z,21.00
2018-04-24T10:15:21.382Z,20.90
2018-04-24T10:17:49.034Z,21.00
2018-04-24T10:20:16.551Z,21.10
2018-04-24T10:22:44.058Z,21.20
2018-04-24T10:25:11.554Z,21.20
2018-04-24T10:27:39.085Z,21.30
2018-04-24T10:30:06.621Z,21.40
2018-04-24T10:32:34.158Z,21.50
2018-04-24T10:35:01.708Z,21.60
2018-04-24T10:37:29.352Z,21.60
2018-04-24T10:39:56.806Z,21.60
2018-04-24T10:42:24.401Z,21.70
2018-04-24T10:44:51.909Z,21.90
2018-04-24T10:47:19.460Z,22.10
2018-04-24T10:49:46.981Z,22.10
2018-04-24T10:52:15.379Z,22.40
2018-04-24T10:54:42.885Z,22.40
2018-04-24T10:57:10.424Z,22.50
2018-04-24T10:59:37.948Z,22.60
2018-04-24T11:02:05.473Z,22.40
2018-04-24T11:04:33.780Z,22.20
2018-04-24T11:07:01.299Z,22.20
2018-04-24T11:09:28.840Z,22.00
2018-04-24T11:11:56.377Z,21.70
2018-04-24T11:14:23.898Z,21.80
2018-04-24T11:16:52.157Z,22.30
2018-04-24T11:19:19.704Z,22.30
2018-04-24T11:21:47.228Z,22.50
2018-04-24T11:24:14.735Z,22.60
2018-04-24T11:26:42.431Z,22.70
2018-04-24T11:29:10.178Z,22.90
2018-04-24T11:31:37.683Z,23.00
2018-04-24T11:34:05.356Z,23.10
2018-04-24T11:36:33.557Z,23.70
2018-04-24T11:39:01.838Z,23.60
2018-04-24T11:41:30.233Z,23.50
2018-04-24T11:43:57.951Z,23.40
2018-04-24T11:46:25.465Z,23.30
2018-04-24T11:48:52.973Z,23.50
2018-04-24T11:51:20.481Z,23.60
2018-04-24T11:53:47.999Z,23.70
2018-04-24T11:56:16.385Z,23.30
2018-04-24T11:58:44.716Z,23.20
2018-04-24T12:01:12.243Z,23.20
2018-04-24T12:03:39.738Z,23.10
2018-04-24T12:06:07.256Z,23.20
2018-04-24T12:08:34.780Z,23.20
2018-04-24T12:11:03.047Z,23.40
2018-04-24T12:13:30.566Z,23.30
2018-04-24T12:15:58.203Z,23.50
2018-04-24T12:18:25.871Z,23.50
2018-04-24T12:20:53.387Z,23.50
2018-04-24T12:23:21.711Z,23.90
2018-04-24T12:25:49.221Z,23.90
2018-04-24T12:28:17.501Z,23.90
2018-04-24T12:30:45.786Z,23.90
2018-04-24T12:33:14.063Z,23.70
2018-04-24T12:35:41.625Z,23.70
2018-04-24T12:38:09.961Z,23.70
2018-04-24T12:40:37.534Z,23.70
2018-04-24T12:43:05.107Z,23.80
2018-04-24T12:45:32.823Z,23.70
2018-04-24T12:48:00.410Z,23.80
2018-04-24T12:50:27.893Z,23.90
2018-04-24T12:52:55.542Z,23.80
2018-04-24T12:55:23.066Z,23.70
2018-04-24T12:57:50.599Z,23.40
2018-04-24T13:00:18.136Z,23.10
2018-04-24T13:02:45.827Z,23.10
2018-04-24T13:05:13.727Z,23.20
2018-04-24T13:07:41.230Z,23.20
2018-04-24T13:10:09.496Z,23.40
2018-04-24T13:12:37.832Z,23.60
2018-04-24T13:15:05.327Z,23.50
2018-04-24T13:17:33.584Z,24.00
2018-04-24T13:20:01.238Z,24.00
2018-04-24T13:22:29.518Z,24.00
2018-04-24T13:24:57.798Z,24.10
2018-04-24T13:27:25.330Z,24.00
2018-04-24T13:29:52.835Z,24.10
2018-04-24T13:32:20.345Z,24.30
2018-04-24T13:34:47.883Z,24.30
2018-04-24T13:37:15.422Z,24.40
2018-04-24T13:39:42.929Z,24.30
2018-04-24T13:42:10.468Z,24.00
2018-04-24T13:44:38.013Z,23.90
2018-04-24T13:47:05.523Z,24.10
2018-04-24T13:49:33.043Z,23.90
2018-04-24T13:52:00.537Z,23.70
2018-04-24T13:54:28.086Z,23.50
2018-04-24T13:56:55.596Z,23.30
2018-04-24T13:59:23.203Z,23.60
2018-04-24T14:01:50.688Z,23.60
2018-04-24T14:04:18.263Z,23.80
2018-04-24T14:06:45.798Z,24.00
2018-04-24T14:09:14.104Z,24.20
2018-04-24T14:11:41.630Z,24.20
2018-04-24T14:14:09.925Z,24.40
2018-04-24T14:16:37.524Z,24.40
2018-04-24T14:19:05.023Z,24.10
2018-04-24T14:21:32.594Z,24.10
2018-04-24T14:24:00.178Z,24.10
2018-04-24T14:26:27.727Z,24.20
2018-04-24T14:28:55.348Z,24.20
2018-04-24T14:31:23.669Z,24.30
2018-04-24T14:33:51.173Z,24.30
2018-04-24T14:36:18.693Z,24.40
2018-04-24T14:38:46.196Z,24.70
2018-04-24T14:41:13.723Z,24.90
2018-04-24T14:43:41.273Z,25.00
2018-04-24T14:46:09.052Z,25.20
2018-04-24T14:48:36.959Z,25.40
2018-04-24T14:51:04.489Z,25.40
2018-04-24T14:53:32.930Z,25.80
2018-04-24T14:56:01.326Z,26.40
2018-04-24T14:58:29.721Z,27.00
2018-04-24T15:00:58.013Z,27.00
2018-04-24T15:03:25.534Z,27.70
2018-04-24T15:05:53.580Z,28.20
2018-04-24T15:08:21.317Z,28.80
2018-04-24T15:10:49.059Z,29.10
2018-04-24T15:13:16.648Z,29.40
2018-04-24T15:15:44.911Z,30.40
2018-04-24T15:18:13.188Z,30.90
2018-04-24T15:20:41.452Z,31.00
2018-04-24T15:23:09.037Z,30.90
2018-04-24T15:25:36.609Z,31.20
2018-04-24T15:28:04.185Z,31.40
2018-04-24T15:30:32.014Z,31.50
2018-04-24T15:32:59.817Z,31.00
2018-04-24T15:35:27.826Z,29.80
2018-04-24T15:37:55.443Z,29.10
2018-04-24T15:40:22.994Z,28.40
2018-04-24T15:42:50.472Z,27.70
2018-04-24T15:45:18.007Z,27.30
2018-04-24T15:47:45.491Z,26.90
2018-04-24T15:50:13.098Z,26.30
2018-04-24T15:52:41.371Z,25.10
2018-04-24T15:55:09.638Z,24.70
2018-04-24T15:57:37.900Z,24.00
2018-04-24T16:00:05.415Z,23.90
2018-04-24T16:02:32.909Z,23.60
2018-04-24T16:05:00.700Z,23.30
2018-04-24T16:07:28.467Z,23.10
2018-04-24T16:09:56.040Z,22.90
2018-04-24T16:12:23.526Z,22.70
2018-04-24T16:14:51.067Z,22.60
2018-04-24T16:17:18.559Z,22.20
2018-04-24T16:19:46.293Z,22.00
2018-04-24T16:22:14.191Z,21.80
2018-04-24T16:24:41.698Z,21.60
2018-04-24T16:27:09.356Z,21.40
2018-04-24T16:29:36.903Z,21.20
2018-04-24T16:32:05.142Z,20.90
2018-04-24T16:34:32.661Z,20.90
2018-04-24T16:37:00.150Z,20.70
2018-04-24T16:39:27.660Z,20.60
2018-04-24T16:41:55.177Z,20.50
2018-04-24T16:44:22.678Z,20.40
2018-04-24T16:46:50.170Z,20.30
2018-04-24T16:49:17.790Z,20.20
2018-04-24T16:51:45.282Z,20.10
2018-04-24T16:54:13.193Z,20.00
2018-04-24T16:56:40.733Z,19.90
2018-04-24T16:59:08.230Z,19.90
2018-04-24T17:01:36.523Z,19.80
2018-04-24T17:04:04.009Z,19.70
2018-04-24T17:06:32.211Z,19.70
2018-04-24T17:08:59.750Z,19.60
2018-04-24T17:11:27.442Z,19.60
2018-04-24T17:13:54.929Z,19.50
2018-04-24T17:16:22.430Z,19.40
2018-04-24T17:18:50.688Z,19.30
2018-04-24T17:21:18.227Z,19.20
2018-04-24T17:23:45.729Z,19.20
2018-04-24T17:26:13.291Z,19.20
2018-04-24T17:28:40.826Z,19.10
2018-04-24T17:31:08.563Z,19.00
2018-04-24T17:33:38.041Z,18.90
2018-04-24T17:36:06.260Z,18.90
2018-04-24T17:38:33.873Z,18.90
2018-04-24T17:41:01.566Z,18.80
2018-04-24T17:43:30.154Z,18.60
2018-04-24T17:45:57.822Z,18.60
2018-04-24T17:48:25.482Z,18.50
2018-04-24T17:50:53.143Z,18.50
2018-04-24T17:53:20.673Z,18.30
2018-04-24T17:55:48.325Z,18.20
2018-04-24T17:58:15.909Z,18.20
2018-04-24T18:00:43.711Z,18.10
2018-04-24T18:03:11.314Z,18.10
2018-04-24T18:05:39.131Z,18.00
2018-04-24T18:08:06.953Z,18.00
2018-04-24T18:10:34.515Z,17.80
2018-04-24T18:13:02.019Z,17.70
2018-04-24T18:15:29.556Z,17.50
2018-04-24T18:17:57.138Z,17.50
2018-04-24T18:20:24.629Z,17.30
2018-04-24T18:22:52.885Z,17.10
2018-04-24T18:25:21.174Z,17.10
2018-04-24T18:27:49.494Z,17.10
2018-04-24T18:30:16.976Z,17.10
2018-04-24T18:32:44.475Z,17.00
2018-04-24T18:35:11.987Z,17.00
2018-04-24T18:37:39.490Z,16.90
2018-04-24T18:40:07.020Z,16.80
2018-04-24T18:42:34.517Z,16.80
2018-04-24T18:45:02.282Z,16.80
2018-04-24T18:47:29.925Z,16.70
2018-04-24T18:49:57.635Z,16.70
2018-04-24T18:52:25.955Z,16.70
2018-04-24T18:54:54.285Z,16.70
2018-04-24T18:57:21.793Z,16.70
2018-04-24T18:59:50.079Z,16.70
2018-04-24T19:02:17.567Z,16.70
2018-04-24T19:04:45.076Z,16.60
2018-04-24T19:07:13.342Z,16.50
2018-04-24T19:09:41.735Z,16.40
2018-04-24T19:12:10.109Z,16.40
2018-04-24T19:14:38.454Z,16.50
2018-04-24T19:17:06.986Z,16.30
2018-04-24T19:19:34.521Z,16.30
2018-04-24T19:22:02.088Z,16.30
2018-04-24T19:24:36.401Z,16.20
2018-04-24T19:27:04.906Z,16.20
2018-04-24T19:29:33.265Z,16.10
2018-04-24T19:32:07.280Z,16.10
2018-04-24T19:34:34.916Z,16.10
2018-04-24T19:37:03.472Z,15.90
2018-04-24T19:39:37.431Z,15.90
2018-04-24T19:42:04.971Z,15.80
2018-04-24T19:44:32.515Z,15.90
2018-04-24T19:47:00.010Z,15.80
2018-04-24T19:49:33.184Z,15.70
2018-04-24T19:52:01.445Z,15.70
2018-04-24T19:54:28.947Z,15.60
2018-04-24T19:56:56.432Z,15.60
2018-04-24T19:59:23.983Z,15.60
2018-04-24T20:01:51.740Z,15.60
2018-04-24T20:04:19.236Z,15.60
2018-04-24T20:06:46.734Z,15.50
2018-04-24T20:09:14.248Z,15.50
2018-04-24T20:11:41.771Z,15.40
2018-04-24T20:14:09.526Z,15.40
2018-04-24T20:16:37.322Z,15.30
2018-04-24T20:19:04.930Z,15.30
2018-04-24T20:21:32.599Z,15.30
2018-04-24T20:24:00.340Z,15.30
2018-04-24T20:26:28.661Z,15.10
2018-04-24T20:28:56.934Z,15.10
2018-04-24T20:31:24.440Z,15.10
2018-04-24T20:33:52.978Z,15.10
2018-04-24T20:36:20.661Z,15.10
2018-04-24T20:38:48.205Z,15.10
2018-04-24T20:41:15.702Z,15.00
2018-04-24T20:43:44.069Z,15.00
2018-04-24T20:46:11.589Z,15.00
2018-04-24T20:48:39.114Z,14.90
2018-04-24T20:51:06.605Z,14.90
2018-04-24T20:53:34.253Z,14.80
2018-04-24T20:56:01.678Z,14.80
2018-04-24T20:58:29.920Z,14.70
2018-04-24T21:00:57.487Z,14.70
2018-04-24T21:03:24.923Z,14.70
2018-04-24T21:05:52.439Z,14.70
2018-04-24T21:08:19.952Z,14.70
2018-04-24T21:10:47.444Z,14.50
2018-04-24T21:13:15.124Z,14.40
2018-04-24T21:15:42.546Z,14.50
2018-04-24T21:18:10.853Z,14.50
2018-04-24T21:20:38.340Z,14.40
2018-04-24T21:23:05.840Z,14.40
2018-04-24T21:25:34.135Z,14.30
2018-04-24T21:28:01.627Z,14.30
2018-04-24T21:30:29.144Z,14.30
2018-04-24T21:32:56.647Z,14.30
2018-04-24T21:35:24.970Z,14.00
2018-04-24T21:37:53.245Z,14.00
2018-04-24T21:40:21.510Z,14.10
2018-04-24T21:42:49.061Z,14.10
2018-04-24T21:45:17.338Z,14.00
2018-04-24T21:47:44.909Z,14.00
2018-04-24T21:50:13.209Z,14.00
2018-04-24T21:52:40.772Z,13.90
2018-04-24T21:55:08.316Z,14.00
2018-04-24T21:57:36.594Z,13.90
2018-04-24T22:00:04.179Z,13.90
2018-04-24T22:02:31.685Z,13.90
2018-04-24T22:04:59.189Z,13.80
2018-04-24T22:07:26.717Z,13.90
2018-04-24T22:09:55.049Z,13.80
2018-04-24T22:12:22.574Z,13.80
2018-04-24T22:14:50.155Z,13.80
2018-04-24T22:17:17.688Z,13.70
2018-04-24T22:19:45.184Z,13.70
2018-04-24T22:22:12.699Z,13.70
2018-04-24T22:24:40.199Z,13.70
2018-04-24T22:27:07.706Z,13.60
2018-04-24T22:29:35.986Z,13.60
2018-04-24T22:32:03.464Z,13.60
2018-04-24T22:34:30.961Z,13.70
2018-04-24T22:36:58.471Z,13.50
2018-04-24T22:39:25.977Z,13.60
2018-04-24T22:41:53.499Z,13.50
2018-04-24T22:44:21.013Z,13.50
2018-04-24T22:46:49.276Z,13.50
2018-04-24T22:49:16.778Z,13.40
2018-04-24T22:51:44.274Z,13.40
2018-04-24T22:54:11.794Z,13.40
2018-04-24T22:56:39.302Z,13.40
2018-04-24T22:59:06.825Z,13.30
2018-04-24T23:01:34.337Z,13.30
2018-04-24T23:04:02.650Z,13.10
2018-04-24T23:06:30.174Z,13.10
2018-04-24T23:08:58.515Z,13.10
2018-04-24T23:11:37.730Z,13.10
2018-04-24T23:14:17.349Z,13.20
2018-04-24T23:16:56.681Z,13.10
2018-04-24T23:19:35.914Z,13.10
2018-04-24T23:22:02.942Z,13.00
2018-04-24T23:24:32.150Z,13.00
2018-04-24T23:26:59.650Z,12.90
2018-04-24T23:29:27.138Z,12.90
2018-04-24T23:31:54.640Z,13.10
2018-04-24T23:34:22.181Z,13.00
2018-04-24T23:36:49.995Z,13.00
2018-04-24T23:39:18.435Z,13.10
2018-04-24T23:41:45.988Z,13.10
2018-04-24T23:44:13.470Z,13.10
2018-04-24T23:46:40.958Z,13.10
2018-04-24T23:49:08.556Z,13.10
2018-04-24T23:51:37.123Z,13.10
2018-04-24T23:54:04.830Z,13.10
2018-04-24T23:56:35.203Z,13.10
2018-04-24T23:59:03.527Z,13.10
